Airfield :
LOGIN :

Register | Disclaimer

   EN    FR    IT 

 










Legend :    VFR   Marginal VFR   IFR   Intensive IFR   Very Intensive IFR
Visi :
Ceiling :
>= 8 km
>= 3000ft
5 to 8 km
1000 to 3000 ft
1500m to 5 km
500 to 1000 ft
800 to 1500m
200 to 500 ft
< 800m
< 200 ft
Symbols :   Thunderstorms  Fog  Heavy snow  Heavy precipitations  Wind > 20 kt
SIGMETs :     Misc.  Thunderstorms  Icing  Turbulence  Mountain Waves  Volcanic Ashes







- Airport Elevation : 17 ft
- IATA code : MPL
- Download approach charts


LFMT - Montpellier Méditerranée

CURRENT METAR :
  • 131500Z AUTO 02013KT 9999 -RA FEW013 BKN020 OVC025 06/05 Q1006 TEMPO 4000 -RA BR OVC010

EXPIRED METARs :
  • 131430Z AUTO 02013KT 9000 -RA FEW013/// BKN020/// OVC026/// ///TCU 06/04 Q1006 TEMPO 4000 -RA BR OVC010
  • 131400Z AUTO 02012KT 9999 FEW009/// OVC019/// ///TCU 06/04 Q1006 TEMPO 4000 -RA OVC010
  • 131330Z AUTO 02012KT 9999 -RA OVC019/// ///TCU 05/04 Q1007 TEMPO 4000 -RA OVC010
  • 131300Z AUTO 01010KT 7000 -RA OVC017 05/04 Q1007 TEMPO 4000 -RA OVC010
  • 131230Z AUTO 01011KT 5000 -RA BR OVC015 05/04 Q1008 TEMPO OVC010

TAF TAF LFMT
Valid from the 13 at 15:00 until the 14 at 15:00 UTC


131400Z 1315/1415 02012KT 9999 OVC020
TEMPO 1315/1406 4000 -RA BR OVC010
BECMG 1406/1408 VRB03KT
BECMG 1409/1411 CAVOK
ATIS : +33 4 67 13 11 70
No reported NOTAMs for that airfield.
1 SIGMET reported for the Marseille FIR (LFMM) :
 
Embedded thunderstorms
LFMM SIGMET 4 VALID 131300/131500 LFPW
LFMM MARSEILLE FIR/UIR EMBD TS OBS AT 1300Z WI N4115 E00800 - N4000 E00800 - N4045 E00600 - N4130 E00730 - N4115 E00800 TOP FL360 MOV NE 15KT NC=



MET'MAP, your aeronautical weather chart ! - Copyright ORBIFLY December 2007 - Disclaimer

ORBIFLY MET'MAP TEAM :

Programming & Development : Alexandra Zaïnal
Concept & Development : Baudouin d'Aumeries
Co-Development & Prog : Marc-Olivier Méhu
Technical & hardware support : Manuel Goepfert

Contact : metmap@orbifly.com




SOURCES & CREDITS :

   NOAA